Time;durP1;ratioP1;P1;durP2;ratioP2;P2;SDS_P1;SDS_P2;PMS_P1;PMS_P2;Temp;Humidity;BMP_temperature;BMP_pressure;BME280_temperature;BME280_humidity;BME280_pressure;Samples;Min_cycle;Max_cycle;Signal;HPM_P1;HPM_P2
2023/07/17 00:00:32;;;;;;;2.35;2.15;;;;;;;23.90;100.00;97656.09;1223790;75;2929187;-68
2023/07/17 00:03:04;;;;;;;2.65;2.05;;;;;;;23.88;100.00;97653.13;1223941;75;2929246;-68
2023/07/17 00:05:37;;;;;;;2.50;2.30;;;;;;;23.79;100.00;97655.22;1224056;75;2924215;-69
2023/07/17 00:08:10;;;;;;;2.05;1.90;;;;;;;23.80;100.00;97650.38;1224102;75;2921065;-67
2023/07/17 00:10:42;;;;;;;1.85;1.75;;;;;;;23.76;100.00;97658.41;1224646;75;2927195;-68
2023/07/17 00:13:15;;;;;;;1.85;1.75;;;;;;;23.69;100.00;97650.75;1223593;75;2923263;-68
2023/07/17 00:15:50;;;;;;;2.05;1.85;;;;;;;23.73;100.00;97659.50;1223585;75;2920105;-66
2023/07/17 00:18:23;;;;;;;1.75;1.65;;;;;;;23.65;100.00;97656.75;1224026;75;2921232;-68
2023/07/17 00:20:55;;;;;;;2.20;2.00;;;;;;;23.52;100.00;97651.41;1223972;75;2928298;-67
2023/07/17 00:23:28;;;;;;;2.00;1.90;;;;;;;23.61;100.00;97642.41;1223645;75;2925560;-67
2023/07/17 00:26:01;;;;;;;2.25;2.05;;;;;;;23.52;100.00;97654.97;1223475;75;2924006;-66
2023/07/17 00:28:35;;;;;;;2.10;1.90;;;;;;;23.54;100.00;97654.38;1224246;75;2923991;-67
2023/07/17 00:31:10;;;;;;;2.40;1.85;;;;;;;23.46;100.00;97662.78;1224457;75;2922591;-68
2023/07/17 00:33:43;;;;;;;2.50;1.90;;;;;;;23.46;100.00;97657.19;1223719;75;2919025;-66
2023/07/17 00:36:15;;;;;;;1.80;1.70;;;;;;;23.50;100.00;97656.81;1223524;75;2923319;-68
2023/07/17 00:38:48;;;;;;;1.70;1.60;;;;;;;23.47;100.00;97653.09;1224046;75;2928100;-66
2023/07/17 00:41:20;;;;;;;1.75;1.55;;;;;;;23.43;100.00;97652.75;1223918;75;2918690;-67
2023/07/17 00:43:53;;;;;;;1.90;1.60;;;;;;;23.39;100.00;97649.59;1224454;75;2923002;-68
2023/07/17 00:46:28;;;;;;;2.25;1.90;;;;;;;23.37;100.00;97646.63;1224136;75;2918118;-69
2023/07/17 00:49:05;;;;;;;1.90;1.80;;;;;;;23.31;100.00;97649.63;1223965;75;2922346;-66
2023/07/17 00:51:39;;;;;;;1.90;1.80;;;;;;;23.26;100.00;97653.38;1224125;75;2925946;-67
2023/07/17 00:54:14;;;;;;;1.80;1.70;;;;;;;23.26;100.00;97653.38;1223998;75;2922717;-66
2023/07/17 00:56:48;;;;;;;2.05;1.70;;;;;;;23.17;100.00;97649.09;1223933;75;2916724;-66
2023/07/17 00:59:21;;;;;;;2.00;1.80;;;;;;;23.10;100.00;97647.06;1223790;75;2931826;-66
2023/07/17 01:01:56;;;;;;;2.65;1.50;;;;;;;23.02;100.00;97653.97;1224095;75;2925824;-66
2023/07/17 01:04:29;;;;;;;2.15;1.95;;;;;;;23.06;100.00;97648.75;1223053;75;2922332;-66
2023/07/17 01:07:01;;;;;;;2.25;1.75;;;;;;;23.07;100.00;97653.06;1223876;75;2930969;-65
2023/07/17 01:09:35;;;;;;;2.95;2.25;;;;;;;22.93;100.00;97639.25;1223678;75;2922383;-68
2023/07/17 01:12:09;;;;;;;2.30;1.90;;;;;;;23.04;100.00;97643.75;1223806;75;2926532;-66
2023/07/17 01:14:42;;;;;;;1.95;1.80;;;;;;;22.93;100.00;97633.69;1224127;75;2925568;-67
2023/07/17 01:17:17;;;;;;;2.35;2.00;;;;;;;22.96;100.00;97638.13;1222883;75;2924082;-70
2023/07/17 01:19:50;;;;;;;2.10;1.90;;;;;;;22.93;100.00;97641.31;1223470;75;2924881;-64
2023/07/17 01:22:29;;;;;;;2.00;1.80;;;;;;;22.91;100.00;97649.50;1223997;75;2925304;-67
2023/07/17 01:25:05;;;;;;;2.20;2.00;;;;;;;22.79;100.00;97640.78;1223622;75;2931173;-66
2023/07/17 01:27:37;;;;;;;2.40;2.20;;;;;;;22.71;100.00;97648.41;1223850;75;2923885;-68
2023/07/17 01:30:12;;;;;;;2.55;2.25;;;;;;;22.76;100.00;97651.00;1223606;75;2940549;-67
2023/07/17 01:32:45;;;;;;;3.15;2.35;;;;;;;22.59;100.00;97659.22;1223999;75;2927533;-66
2023/07/17 01:35:18;;;;;;;2.40;2.20;;;;;;;22.57;100.00;97650.66;1223927;75;2920198;-65
2023/07/17 01:37:50;;;;;;;2.45;2.10;;;;;;;22.72;100.00;97655.47;1223765;75;2927029;-67
2023/07/17 01:40:25;;;;;;;2.05;1.95;;;;;;;22.81;100.00;97654.19;1224715;75;2883178;-66
2023/07/17 01:42:58;;;;;;;1.65;1.55;;;;;;;22.65;100.00;97654.19;1223764;75;2922450;-66
2023/07/17 01:45:31;;;;;;;2.05;1.80;;;;;;;22.71;100.00;97657.53;1223497;75;2937965;-66
2023/07/17 01:48:03;;;;;;;2.10;1.85;;;;;;;22.66;100.00;97655.69;1223941;75;2927641;-67
2023/07/17 01:50:36;;;;;;;2.45;2.25;;;;;;;22.65;100.00;97661.81;1223606;75;2927462;-69
2023/07/17 01:53:08;;;;;;;1.95;1.80;;;;;;;22.41;100.00;97655.47;1223080;75;2922856;-66
2023/07/17 01:55:43;;;;;;;2.90;2.60;;;;;;;22.30;100.00;97656.59;1223705;75;2920046;-70
2023/07/17 01:58:16;;;;;;;2.35;2.15;;;;;;;22.45;100.00;97650.28;1223647;75;2918975;-67
2023/07/17 02:00:49;;;;;;;2.10;1.90;;;;;;;22.48;100.00;97649.16;1223495;75;2919075;-67
2023/07/17 02:03:21;;;;;;;1.80;1.70;;;;;;;22.42;100.00;97647.88;1222928;75;2920891;-67
2023/07/17 02:05:55;;;;;;;2.10;1.90;;;;;;;22.47;100.00;97646.94;1223234;75;2923222;-67
2023/07/17 02:08:27;;;;;;;2.25;2.05;;;;;;;22.48;100.00;97642.84;1223258;75;2923480;-66
2023/07/17 02:11:03;;;;;;;2.20;1.85;;;;;;;22.42;100.00;97645.09;1223414;75;2932825;-66
2023/07/17 02:13:36;;;;;;;2.00;1.80;;;;;;;22.41;100.00;97643.59;1224307;75;2937963;-69
2023/07/17 02:16:08;;;;;;;2.00;1.80;;;;;;;22.37;100.00;97637.63;1223939;75;2919396;-67
2023/07/17 02:18:41;;;;;;;2.00;1.80;;;;;;;22.25;100.00;97632.44;1223670;75;2926738;-66
2023/07/17 02:21:14;;;;;;;2.50;2.30;;;;;;;22.24;100.00;97639.28;1224567;75;2919071;-68
2023/07/17 02:23:47;;;;;;;2.45;2.25;;;;;;;22.21;100.00;97650.81;1223032;75;2922076;-67
2023/07/17 02:26:22;;;;;;;2.45;2.25;;;;;;;22.22;100.00;97644.69;1223244;75;2926257;-67
2023/07/17 02:28:55;;;;;;;5.40;4.45;;;;;;;21.91;100.00;97641.84;1224018;75;2928596;-67
2023/07/17 02:31:28;;;;;;;5.00;4.05;;;;;;;22.07;100.00;97648.16;1224248;75;2930485;-65
2023/07/17 02:34:01;;;;;;;4.50;4.10;;;;;;;21.70;100.00;97652.38;1223731;75;2922588;-66
2023/07/17 02:36:33;;;;;;;4.05;3.65;;;;;;;21.62;100.00;97652.34;1224079;75;2916948;-65
2023/07/17 02:39:06;;;;;;;4.60;4.20;;;;;;;21.47;100.00;97655.06;1224034;75;2919571;-67
2023/07/17 02:41:42;;;;;;;4.85;3.80;;;;;;;21.72;100.00;97654.59;1223090;75;2925550;-67
2023/07/17 02:44:14;;;;;;;4.25;3.85;;;;;;;21.75;100.00;97653.50;1223656;75;2930701;-65
2023/07/17 02:46:47;;;;;;;3.75;3.35;;;;;;;21.96;100.00;97658.91;1223313;75;2919029;-65
2023/07/17 02:49:19;;;;;;;4.25;2.70;;;;;;;21.96;100.00;97656.91;1223303;75;2928209;-67
2023/07/17 02:51:52;;;;;;;3.25;2.85;;;;;;;21.96;100.00;97656.13;1223544;75;2925531;-66
2023/07/17 02:54:26;;;;;;;2.65;2.45;;;;;;;21.87;100.00;97657.44;1222958;75;2923595;-68
2023/07/17 02:57:01;;;;;;;2.40;2.20;;;;;;;21.90;100.00;97662.63;1223507;75;2924874;-66
2023/07/17 02:59:33;;;;;;;2.70;2.50;;;;;;;21.86;100.00;97664.28;1222487;75;2921041;-68
2023/07/17 03:02:07;;;;;;;2.55;2.35;;;;;;;21.86;100.00;97664.28;1222603;75;2928665;-69
2023/07/17 03:04:39;;;;;;;3.20;2.90;;;;;;;21.75;100.00;97662.59;1223601;75;2921818;-66
2023/07/17 03:07:12;;;;;;;3.30;3.00;;;;;;;21.69;100.00;97676.69;1223367;75;2933317;-64
2023/07/17 03:09:44;;;;;;;3.10;2.80;;;;;;;21.74;100.00;97668.72;1223076;75;2924505;-68
2023/07/17 03:12:20;;;;;;;2.95;2.40;;;;;;;21.68;100.00;97671.66;1223803;75;2923440;-67
2023/07/17 03:14:52;;;;;;;3.00;2.55;;;;;;;21.70;100.00;97680.22;1223465;75;2924816;-67
2023/07/17 03:17:25;;;;;;;2.95;2.75;;;;;;;21.59;100.00;97677.75;1222452;75;2925083;-68
2023/07/17 03:19:57;;;;;;;3.20;2.85;;;;;;;21.60;100.00;97677.22;1224503;75;2934543;-69
2023/07/17 03:22:30;;;;;;;3.60;3.30;;;;;;;21.40;100.00;97689.19;1223343;75;2935509;-67
2023/07/17 03:25:03;;;;;;;4.85;3.50;;;;;;;21.37;100.00;97684.69;1224257;75;2922789;-69
2023/07/17 03:27:38;;;;;;;3.35;3.05;;;;;;;21.65;100.00;97681.13;1224535;75;2923874;-66
2023/07/17 03:30:12;;;;;;;3.85;3.50;;;;;;;21.66;100.00;97679.84;1223571;75;2920578;-69
2023/07/17 03:32:45;;;;;;;3.60;3.30;;;;;;;21.58;100.00;97693.72;1224694;75;2922612;-70
2023/07/17 03:35:18;;;;;;;5.70;3.30;;;;;;;21.59;100.00;97691.69;1224697;75;2922130;-66
2023/07/17 03:37:50;;;;;;;2.95;2.65;;;;;;;21.54;100.00;97689.81;1223934;75;2920492;-67
2023/07/17 03:40:23;;;;;;;3.30;3.00;;;;;;;21.38;100.00;97694.53;1223910;75;2928022;-70
2023/07/17 03:42:58;;;;;;;3.95;3.50;;;;;;;21.60;100.00;97690.38;1224487;75;2923757;-66
2023/07/17 03:45:31;;;;;;;3.55;3.10;;;;;;;21.59;100.00;97689.63;1223593;83;2922298;-69
2023/07/17 03:48:03;;;;;;;3.10;2.80;;;;;;;21.41;100.00;97691.44;1223530;75;2944895;-71
2023/07/17 03:50:36;;;;;;;3.05;2.75;;;;;;;21.39;100.00;97690.47;1224017;75;2927123;-68
2023/07/17 03:53:08;;;;;;;4.10;3.70;;;;;;;21.24;100.00;97683.50;1224295;75;2931400;-69
2023/07/17 03:55:42;;;;;;;4.10;3.70;;;;;;;21.44;100.00;97687.53;1223842;75;2924799;-68
2023/07/17 03:58:18;;;;;;;4.50;3.60;;;;;;;21.58;100.00;97693.00;1223346;75;2923387;-66
2023/07/17 04:00:50;;;;;;;3.35;3.05;;;;;;;21.76;100.00;97691.94;1223814;75;2939265;-68
2023/07/17 04:03:23;;;;;;;3.00;2.80;;;;;;;21.78;100.00;97692.13;1223544;75;2957567;-70
2023/07/17 04:05:56;;;;;;;2.60;2.40;;;;;;;21.75;100.00;97693.25;1224358;75;2927827;-67
2023/07/17 04:08:28;;;;;;;9.00;3.80;;;;;;;21.17;100.00;97689.78;1223847;75;2925250;-67
2023/07/17 04:11:01;;;;;;;5.45;4.95;;;;;;;21.18;100.00;97690.53;1223855;75;2933110;-68
2023/07/17 04:13:36;;;;;;;5.50;5.00;;;;;;;21.24;100.00;97703.00;1223637;75;2926617;-67
2023/07/17 04:16:09;;;;;;;4.95;4.55;;;;;;;21.33;100.00;97701.00;1223482;75;2935959;-69
2023/07/17 04:18:43;;;;;;;6.35;5.30;;;;;;;21.26;100.00;97708.00;1224011;75;2925724;-68
2023/07/17 04:21:16;;;;;;;6.50;5.55;;;;;;;21.40;100.00;97703.84;1224063;75;2922578;-66
2023/07/17 04:23:50;;;;;;;6.05;5.45;;;;;;;21.56;100.00;97704.69;1223690;75;2925587;-67
2023/07/17 04:26:23;;;;;;;6.10;5.05;;;;;;;21.69;100.00;97696.19;1223743;75;2923200;-69
2023/07/17 04:28:59;;;;;;;4.95;4.55;;;;;;;21.80;100.00;97697.16;1223567;75;2923462;-69
2023/07/17 04:31:32;;;;;;;5.65;5.15;;;;;;;21.83;100.00;97699.56;1223862;75;2927669;-69
2023/07/17 04:34:04;;;;;;;4.90;4.40;;;;;;;21.97;100.00;97696.66;1223705;75;2923392;-67
2023/07/17 04:36:37;;;;;;;5.65;5.05;;;;;;;21.70;100.00;97699.72;1223988;75;2923376;-68
2023/07/17 04:39:09;;;;;;;6.20;4.85;;;;;;;21.92;100.00;97698.31;1223654;75;2927378;-65
2023/07/17 04:41:43;;;;;;;5.35;4.10;;;;;;;22.22;100.00;97702.50;1223649;75;2925316;-68
2023/07/17 04:44:18;;;;;;;4.25;3.85;;;;;;;22.40;100.00;97706.25;1224519;75;2920481;-65
2023/07/17 04:46:51;;;;;;;3.10;2.80;;;;;;;22.42;100.00;97718.34;1224353;75;2929643;-67
2023/07/17 04:49:23;;;;;;;6.10;4.00;;;;;;;22.30;100.00;97720.00;1223912;75;2929274;-67
2023/07/17 04:51:56;;;;;;;5.90;4.50;;;;;;;22.20;100.00;97719.00;1224159;75;2924614;-66
2023/07/17 04:54:28;;;;;;;5.40;4.80;;;;;;;22.25;100.00;97721.66;1223960;75;2934165;-66
2023/07/17 04:57:01;;;;;;;4.55;4.15;;;;;;;22.54;100.00;97722.28;1224147;75;2923726;-68
2023/07/17 04:59:36;;;;;;;4.40;4.00;;;;;;;22.57;100.00;97714.09;1223526;75;2921432;-68
2023/07/17 05:02:09;;;;;;;3.80;3.30;;;;;;;22.78;100.00;97723.03;1223247;75;2929008;-64
2023/07/17 05:04:43;;;;;;;4.45;3.85;;;;;;;22.79;100.00;97718.19;1223980;75;2920479;-65
2023/07/17 05:07:16;;;;;;;3.65;3.35;;;;;;;23.00;100.00;97713.19;1223987;75;2921635;-66
2023/07/17 05:09:48;;;;;;;3.65;3.25;;;;;;;22.81;100.00;97707.94;1223644;75;2930752;-65
2023/07/17 05:12:21;;;;;;;5.65;5.00;;;;;;;22.77;100.00;97713.16;1224412;75;2921317;-67
2023/07/17 05:14:56;;;;;;;5.20;4.70;;;;;;;23.08;100.00;97713.16;1224127;75;2921398;-67
2023/07/17 05:17:29;;;;;;;5.40;4.90;;;;;;;22.97;100.00;97712.22;1223769;75;2928580;-69
2023/07/17 05:20:04;;;;;;;6.25;5.65;;;;;;;22.88;100.00;97712.78;1223259;75;2922535;-68
2023/07/17 05:22:37;;;;;;;6.65;5.60;;;;;;;23.07;100.00;97708.91;1224589;75;2919928;-67
2023/07/17 05:25:10;;;;;;;4.80;4.40;;;;;;;23.40;100.00;97706.94;1223559;75;2923999;-66
2023/07/17 05:27:43;;;;;;;4.40;4.00;;;;;;;23.40;100.00;97704.16;1222876;75;2917776;-67
2023/07/17 05:30:19;;;;;;;5.50;4.50;;;;;;;23.64;100.00;97716.00;1223870;83;2920057;-67
2023/07/17 05:32:51;;;;;;;4.55;4.15;;;;;;;23.57;100.00;97709.88;1223832;75;2923868;-68
2023/07/17 05:35:24;;;;;;;5.50;5.00;;;;;;;23.57;100.00;97709.88;1224042;75;2922508;-69
2023/07/17 05:37:57;;;;;;;6.05;5.15;;;;;;;23.80;100.00;97701.44;1224077;75;2925557;-68
2023/07/17 05:40:30;;;;;;;4.00;3.60;;;;;;;24.07;100.00;97703.72;1224186;75;2919510;-68
2023/07/17 05:43:03;;;;;;;4.65;3.90;;;;;;;23.97;100.00;97702.84;1223329;75;2917594;-68
2023/07/17 05:45:38;;;;;;;5.70;5.20;;;;;;;24.05;100.00;97709.13;1224160;75;2920824;-66
2023/07/17 05:48:12;;;;;;;5.80;5.20;;;;;;;24.14;100.00;97705.00;1223493;75;2920679;-68
2023/07/17 05:50:44;;;;;;;5.85;5.25;;;;;;;24.24;100.00;97703.81;1223592;75;2924923;-67
2023/07/17 05:53:17;;;;;;;5.75;4.90;;;;;;;24.54;100.00;97701.41;1223599;75;2923155;-68
2023/07/17 05:55:50;;;;;;;4.60;4.20;;;;;;;24.72;100.00;97702.94;1223985;75;2918766;-67
2023/07/17 05:58:22;;;;;;;4.20;3.80;;;;;;;24.81;100.00;97704.34;1223863;75;2930565;-68
2023/07/17 06:00:57;;;;;;;3.45;3.15;;;;;;;24.91;100.00;97712.84;1224080;75;2921530;-67
2023/07/17 06:03:30;;;;;;;4.20;3.80;;;;;;;24.91;100.00;97715.66;1224057;75;2931726;-67
2023/07/17 06:06:03;;;;;;;6.55;5.95;;;;;;;24.73;100.00;97721.22;1224544;75;2932547;-66
2023/07/17 06:08:35;;;;;;;7.70;6.90;;;;;;;24.73;100.00;97728.88;1224586;75;2922421;-66
2023/07/17 06:11:08;;;;;;;7.35;6.25;;;;;;;25.10;100.00;97729.84;1223963;75;2944176;-67
2023/07/17 06:13:40;;;;;;;8.60;7.40;;;;;;;24.99;100.00;97731.09;1224614;75;2929072;-68
2023/07/17 06:16:16;;;;;;;8.00;7.20;;;;;;;25.16;100.00;97738.78;1224096;75;2927742;-69
2023/07/17 06:18:48;;;;;;;8.10;7.30;;;;;;;25.30;100.00;97733.59;1223141;75;2919618;-68
2023/07/17 06:21:21;;;;;;;10.40;8.05;;;;;;;24.91;100.00;97741.59;1223736;75;2931161;-68
2023/07/17 06:23:53;;;;;;;8.70;7.10;;;;;;;25.37;100.00;97741.19;1223621;75;2942294;-67
2023/07/17 06:26:26;;;;;;;7.85;6.90;;;;;;;25.48;100.00;97740.72;1223685;75;2929870;-68
2023/07/17 06:28:59;;;;;;;6.65;6.05;;;;;;;25.65;100.00;97728.03;1223853;75;2920810;-67
2023/07/17 06:31:36;;;;;;;5.50;5.00;;;;;;;25.89;100.00;97732.78;1223784;75;2944630;-67
2023/07/17 06:34:09;;;;;;;7.30;5.80;;;;;;;25.88;100.00;97739.75;1224224;75;2925138;-67
2023/07/17 06:36:41;;;;;;;5.70;4.95;;;;;;;26.17;100.00;97733.56;1224286;75;2923258;-66
2023/07/17 06:39:14;;;;;;;7.50;5.85;;;;;;;26.29;100.00;97733.75;1223756;75;2922417;-66
2023/07/17 06:41:47;;;;;;;5.00;4.60;;;;;;;26.49;100.00;97734.63;1223538;75;2923183;-67
2023/07/17 06:44:19;;;;;;;6.35;5.75;;;;;;;26.35;100.00;97734.97;1224711;75;2925635;-66
2023/07/17 06:46:55;;;;;;;5.30;4.80;;;;;;;26.62;100.00;97737.06;1223928;75;2940034;-66
2023/07/17 06:49:27;;;;;;;5.65;5.15;;;;;;;26.68;100.00;97748.03;1224338;75;2927625;-66
2023/07/17 06:52:00;;;;;;;7.60;6.05;;;;;;;26.48;100.00;97733.88;1224396;75;2933593;-68
2023/07/17 06:54:35;;;;;;;7.40;6.70;;;;;;;26.23;100.00;97739.66;1223895;75;2919724;-64
2023/07/17 06:57:09;;;;;;;6.35;5.75;;;;;;;26.88;100.00;97734.78;1224053;75;2931219;-66
2023/07/17 06:59:42;;;;;;;7.20;6.00;;;;;;;26.96;100.00;97733.34;1223545;75;2925953;-65
2023/07/17 07:02:18;;;;;;;5.85;5.25;;;;;;;27.21;100.00;97732.38;1223962;75;2921354;-67
2023/07/17 07:04:50;;;;;;;5.35;4.50;;;;;;;27.39;100.00;97728.09;1223772;75;2936873;-69
2023/07/17 07:07:23;;;;;;;7.85;6.25;;;;;;;27.14;100.00;97733.22;1224125;75;2921349;-69
2023/07/17 07:09:55;;;;;;;5.75;5.25;;;;;;;27.62;100.00;97735.38;1224124;75;2930944;-70
2023/07/17 07:12:28;;;;;;;6.05;5.45;;;;;;;27.40;96.03;97734.47;1223268;75;2936122;-69
2023/07/17 07:15:01;;;;;;;6.05;5.05;;;;;;;27.79;94.23;97731.66;1224026;75;2916745;-67
2023/07/17 07:17:36;;;;;;;5.95;4.80;;;;;;;27.92;91.21;97736.09;1224542;75;2921100;-69
2023/07/17 07:20:11;;;;;;;5.80;5.20;;;;;;;27.96;90.11;97734.31;1223655;75;2934833;-67
2023/07/17 07:22:43;;;;;;;6.25;5.00;;;;;;;28.23;89.49;97731.28;1224314;75;2915213;-66
2023/07/17 07:25:16;;;;;;;5.65;4.45;;;;;;;28.43;90.19;97729.19;1223942;75;2919393;-67
2023/07/17 07:27:48;;;;;;;6.15;5.25;;;;;;;28.23;85.64;97730.56;1223387;75;2932479;-67
2023/07/17 07:30:21;;;;;;;6.00;5.40;;;;;;;28.09;88.60;97727.47;1223853;75;2932687;-67
2023/07/17 07:32:57;;;;;;;7.45;6.25;;;;;;;28.59;85.26;97731.66;1224610;75;2922711;-67
2023/07/17 07:35:29;;;;;;;4.60;4.20;;;;;;;28.95;77.73;97730.59;1223761;75;2931539;-67
2023/07/17 07:38:02;;;;;;;5.55;5.05;;;;;;;28.70;84.06;97736.66;1222995;75;2926932;-66
2023/07/17 07:40:35;;;;;;;4.45;3.95;;;;;;;29.06;80.09;97734.84;1224920;75;2919172;-67
2023/07/17 07:43:07;;;;;;;4.35;3.95;;;;;;;29.24;81.27;97738.88;1225249;75;2921858;-67
2023/07/17 07:45:40;;;;;;;4.80;4.15;;;;;;;29.52;80.98;97730.84;1223816;75;2924738;-68
2023/07/17 07:48:15;;;;;;;3.90;3.60;;;;;;;29.73;78.80;97730.09;1224409;75;2928965;-67
2023/07/17 07:50:52;;;;;;;3.88;3.53;;;;;;;29.97;78.68;97736.56;1165204;75;5648977;-65
2023/07/17 07:53:31;;;;;;;4.90;4.40;;;;;;;30.10;78.16;97735.97;1146710;75;5410333;-68
2023/07/17 07:56:04;;;;;;;5.10;4.60;;;;;;;29.66;76.82;97739.50;1187109;75;5640422;-65
2023/07/17 07:58:37;;;;;;;4.95;4.45;;;;;;;30.35;74.76;97740.34;1223589;75;2956138;-69
2023/07/17 08:01:10;;;;;;;3.80;3.40;;;;;;;30.26;72.88;97738.34;1223265;75;2921396;-67
2023/07/17 08:03:45;;;;;;;4.05;3.65;;;;;;;30.58;70.75;97742.47;1171260;75;5867781;-67
2023/07/17 08:06:17;;;;;;;3.85;3.10;;;;;;;30.58;68.88;97736.81;1221248;75;2936372;-68
2023/07/17 08:08:50;;;;;;;3.75;3.35;;;;;;;30.49;68.94;97743.31;1224339;75;2924861;-68
2023/07/17 08:11:23;;;;;;;4.50;4.05;;;;;;;30.63;69.26;97743.44;1224067;75;2926907;-69
2023/07/17 08:13:55;;;;;;;3.40;3.10;;;;;;;30.80;68.60;97740.25;1223556;75;2929574;-67
2023/07/17 08:16:28;;;;;;;4.30;3.10;;;;;;;31.09;67.73;97747.63;1223109;75;2932836;-68
2023/07/17 08:19:03;;;;;;;4.45;3.70;;;;;;;30.78;67.17;97749.34;1208088;75;4091222;-68
2023/07/17 08:21:36;;;;;;;3.65;3.30;;;;;;;31.28;67.14;97755.84;1223300;75;2924367;-68
2023/07/17 08:24:09;;;;;;;4.20;3.80;;;;;;;31.05;67.00;97756.59;1223251;75;2931463;-67
2023/07/17 08:26:43;;;;;;;4.20;3.60;;;;;;;31.29;66.15;97759.41;1222674;75;2928860;-68
2023/07/17 08:29:16;;;;;;;4.55;3.45;;;;;;;31.48;66.40;97761.97;1222881;75;2926929;-65
2023/07/17 08:31:49;;;;;;;4.25;3.60;;;;;;;31.48;64.42;97761.97;1222633;75;2924139;-68
2023/07/17 08:34:24;;;;;;;5.05;4.55;;;;;;;31.02;66.37;97751.47;1223064;75;2929100;-65
2023/07/17 08:36:57;;;;;;;3.90;3.60;;;;;;;31.75;65.02;97757.81;1223299;75;2930998;-69
2023/07/17 08:39:29;;;;;;;4.40;4.00;;;;;;;31.69;63.97;97755.38;1222943;75;2930821;-68
2023/07/17 08:42:02;;;;;;;5.80;4.25;;;;;;;31.77;64.60;97761.50;1216613;75;3338275;-68
2023/07/17 08:44:34;;;;;;;4.65;4.25;;;;;;;31.48;63.61;97766.88;1222597;75;2953910;-66
2023/07/17 08:47:09;;;;;;;3.85;3.35;;;;;;;31.93;64.27;97763.78;1223094;75;2928644;-67
2023/07/17 08:49:46;;;;;;;4.75;3.60;;;;;;;32.09;63.70;97761.88;1223486;75;2923885;-66
2023/07/17 08:52:20;;;;;;;3.55;2.80;;;;;;;32.20;62.49;97768.84;1223121;75;2921186;-69
2023/07/17 08:54:54;;;;;;;4.65;3.65;;;;;;;32.17;62.45;97764.44;1223637;75;2925812;-68
2023/07/17 08:57:29;;;;;;;3.65;3.00;;;;;;;32.54;60.65;97770.00;1223105;75;2937891;-66
2023/07/17 09:00:03;;;;;;;3.95;3.15;;;;;;;32.48;61.71;97766.81;1223224;75;2924743;-66
2023/07/17 09:02:36;;;;;;;3.65;3.35;;;;;;;32.57;60.27;97756.66;1223821;75;2922840;-67
2023/07/17 09:05:12;;;;;;;5.40;4.10;;;;;;;31.91;62.75;97764.41;1223215;75;2921157;-70
2023/07/17 09:07:45;;;;;;;4.60;4.10;;;;;;;32.42;62.16;97763.66;1223622;75;2922868;-69
2023/07/17 09:10:23;;;;;;;3.75;3.40;;;;;;;32.64;61.41;97770.56;1224019;75;2920498;-67
2023/07/17 09:12:58;;;;;;;4.45;4.05;;;;;;;32.24;62.32;97763.41;1223957;75;2924390;-68
2023/07/17 09:15:32;;;;;;;3.80;3.50;;;;;;;32.97;61.39;97760.91;1223564;75;2922646;-68
2023/07/17 09:18:06;;;;;;;3.45;3.15;;;;;;;32.89;59.49;97769.00;1223647;75;2920563;-68
2023/07/17 09:20:41;;;;;;;3.95;3.05;;;;;;;33.41;59.57;97758.94;1223588;75;2923430;-70
2023/07/17 09:23:14;;;;;;;3.80;3.00;;;;;;;33.63;58.90;97767.09;1223452;75;2919782;-67
2023/07/17 09:25:54;;;;;;;3.10;2.80;;;;;;;33.23;58.77;97758.72;1223755;75;2926368;-69
2023/07/17 09:28:26;;;;;;;3.80;3.40;;;;;;;33.38;59.34;97757.34;1223594;75;2921032;-68
2023/07/17 09:31:04;;;;;;;3.50;3.10;;;;;;;33.31;60.11;97764.06;1223424;75;2921351;-69
2023/07/17 09:33:40;;;;;;;3.60;3.25;;;;;;;33.44;57.66;97762.59;1223692;75;2918249;-68
2023/07/17 09:36:16;;;;;;;4.80;3.70;;;;;;;32.88;59.36;97750.50;1224471;75;2933968;-68
2023/07/17 09:38:53;;;;;;;4.10;3.50;;;;;;;33.34;60.70;97745.03;1223123;75;2933567;-68
2023/07/17 09:41:28;;;;;;;6.80;4.80;;;;;;;32.90;62.07;97761.97;1224049;75;2930903;-68
2023/07/17 09:44:05;;;;;;;5.65;4.60;;;;;;;32.63;63.02;97757.75;1223411;75;2930354;-69
2023/07/17 09:46:39;;;;;;;4.30;3.90;;;;;;;33.17;61.11;97749.16;1223672;75;2917811;-68
2023/07/17 09:49:11;;;;;;;5.05;4.40;;;;;;;32.60;63.06;97750.50;1223511;75;2925566;-70
2023/07/17 09:51:49;;;;;;;5.00;4.50;;;;;;;32.28;62.50;97755.13;1223700;75;2923160;-68
2023/07/17 09:54:23;;;;;;;3.70;3.40;;;;;;;33.34;58.57;97745.78;1222899;75;2929941;-71
2023/07/17 09:56:57;;;;;;;3.40;3.00;;;;;;;33.90;57.74;97741.44;1223080;75;2923952;-69
2023/07/17 09:59:35;;;;;;;5.50;4.35;;;;;;;33.85;59.75;97742.63;1223864;75;2928814;-68
2023/07/17 10:02:15;;;;;;;3.90;3.50;;;;;;;34.09;57.42;97737.41;1224509;75;2922235;-67
2023/07/17 10:04:56;;;;;;;4.40;3.65;;;;;;;33.87;56.34;97748.41;1223328;75;2921010;-68
2023/07/17 10:07:32;;;;;;;4.25;3.65;;;;;;;33.89;57.24;97740.00;1223934;75;2920563;-69
2023/07/17 10:10:05;;;;;;;3.75;3.35;;;;;;;33.82;57.28;97748.84;1223908;75;2919687;-68
2023/07/17 10:12:39;;;;;;;3.65;3.35;;;;;;;34.17;56.02;97747.69;1223505;75;2922321;-68
2023/07/17 10:15:13;;;;;;;5.80;4.05;;;;;;;33.76;57.07;97749.28;1223501;75;2932894;-67
2023/07/17 10:17:57;;;;;;;4.45;3.35;;;;;;;33.62;57.14;97734.41;1223815;75;2931126;-69
2023/07/17 10:20:33;;;;;;;3.70;2.80;;;;;;;34.62;54.70;97730.59;1222916;75;2918853;-70
2023/07/17 10:23:25;;;;;;;5.35;3.90;;;;;;;34.59;55.95;97737.53;1223923;75;2920720;-67
2023/07/17 10:26:11;;;;;;;3.00;2.70;;;;;;;34.77;54.81;97726.25;1223907;75;2930944;-69
2023/07/17 10:28:44;;;;;;;3.55;3.20;;;;;;;35.08;54.79;97725.47;1224112;75;2923735;-67
2023/07/17 10:31:23;;;;;;;3.80;3.40;;;;;;;34.66;55.89;97725.09;1224246;75;2920583;-69
2023/07/17 10:34:00;;;;;;;4.95;3.75;;;;;;;34.61;54.82;97712.03;1223692;75;2926398;-68
2023/07/17 10:36:44;;;;;;;5.40;4.35;;;;;;;34.40;55.32;97723.84;1224141;75;2930850;-68
2023/07/17 10:39:22;;;;;;;4.90;3.60;;;;;;;34.68;54.12;97727.28;1223792;75;2922715;-66
2023/07/17 10:41:55;;;;;;;3.75;3.35;;;;;;;34.42;53.98;97730.38;1223786;75;2909146;-69
2023/07/17 10:44:28;;;;;;;7.40;4.20;;;;;;;33.62;54.48;97723.03;1223884;75;2936608;-67
2023/07/17 10:47:01;;;;;;;4.40;3.70;;;;;;;34.70;53.95;97718.84;1223117;75;2926524;-66
2023/07/17 10:49:33;;;;;;;3.70;3.30;;;;;;;35.14;53.33;97713.63;1223757;75;2922115;-68
2023/07/17 10:52:08;;;;;;;5.05;3.90;;;;;;;34.57;53.13;97712.59;1224144;75;2919024;-69
2023/07/17 10:54:43;;;;;;;5.30;3.30;;;;;;;35.02;52.28;97705.28;1221199;75;2957117;-67
2023/07/17 10:57:15;;;;;;;3.90;3.50;;;;;;;35.02;52.43;97704.56;1223678;75;2919825;-69
2023/07/17 10:59:48;;;;;;;4.70;4.20;;;;;;;34.02;55.34;97695.84;1224134;75;2921957;-68
2023/07/17 11:02:22;;;;;;;4.60;3.85;;;;;;;34.55;54.48;97686.91;1224200;75;2927975;-66
2023/07/17 11:04:58;;;;;;;5.10;3.55;;;;;;;34.83;52.12;97681.03;1224509;75;2935815;-66
2023/07/17 11:07:34;;;;;;;4.30;3.60;;;;;;;34.44;53.17;97684.97;1223864;75;2915846;-68
2023/07/17 11:10:15;;;;;;;7.40;3.70;;;;;;;33.62;57.37;97689.69;1223683;75;2933634;-68
2023/07/17 11:12:48;;;;;;;4.35;3.90;;;;;;;34.06;55.79;97701.72;1223984;75;2918619;-68
2023/07/17 11:15:21;;;;;;;4.75;3.70;;;;;;;33.82;55.80;97700.56;1223275;75;2924810;-66
2023/07/17 11:17:54;;;;;;;5.40;4.60;;;;;;;33.14;56.52;97700.09;1223635;75;2923110;-67
2023/07/17 11:20:27;;;;;;;7.05;4.50;;;;;;;33.07;56.40;97679.22;1223944;75;2922932;-69
2023/07/17 11:23:00;;;;;;;7.85;4.40;;;;;;;33.73;56.54;97668.94;1223234;75;2913212;-66
2023/07/17 11:25:38;;;;;;;4.80;4.15;;;;;;;33.73;54.98;97668.94;1223679;75;2925312;-68
2023/07/17 11:28:11;;;;;;;4.10;3.70;;;;;;;34.50;55.28;97668.19;1223550;75;2923550;-67
2023/07/17 11:30:43;;;;;;;5.20;4.10;;;;;;;34.38;53.82;97666.94;1223830;75;2930534;-69
2023/07/17 11:33:17;;;;;;;5.20;4.45;;;;;;;33.87;55.73;97674.56;1223657;75;2931595;-67
2023/07/17 11:35:52;;;;;;;6.35;3.60;;;;;;;33.71;55.38;97685.88;1223000;75;2928532;-68
2023/07/17 11:38:25;;;;;;;3.80;3.35;;;;;;;33.73;56.02;97688.81;1224534;75;2921318;-67
2023/07/17 11:41:02;;;;;;;3.40;3.10;;;;;;;34.08;54.49;97689.69;1224644;75;2927431;-69